createdAt,value
2022-08-10T00:03:12.988Z,0
2022-08-10T00:08:12.955Z,0
2022-08-10T00:23:18.872Z,0
2022-08-10T00:38:22.656Z,0
2022-08-10T00:43:13.260Z,0
2022-08-10T00:53:13.030Z,0
2022-08-10T00:58:13.080Z,0
2022-08-10T01:03:13.014Z,0
2022-08-10T01:08:13.010Z,0
2022-08-10T01:13:13.018Z,0
2022-08-10T01:18:13.001Z,0
2022-08-10T01:23:13.035Z,0
2022-08-10T01:28:13.055Z,0
2022-08-10T01:33:13.018Z,0
2022-08-10T01:38:13.021Z,0
2022-08-10T01:43:15.464Z,0
2022-08-10T01:53:13.000Z,0
2022-08-10T01:58:13.025Z,0
2022-08-10T02:03:13.033Z,0
2022-08-10T02:08:13.074Z,0
2022-08-10T02:13:13.014Z,0
2022-08-10T02:23:14.845Z,0
2022-08-10T02:28:13.304Z,0
2022-08-10T02:38:13.103Z,0
2022-08-10T02:48:13.020Z,0
2022-08-10T02:53:49.677Z,0
2022-08-10T02:58:17.947Z,0
2022-08-10T03:03:13.049Z,0
2022-08-10T03:08:13.051Z,0
2022-08-10T03:18:13.025Z,0
2022-08-10T03:23:14.487Z,0
2022-08-10T03:28:13.089Z,0
2022-08-10T03:38:13.077Z,0
2022-08-10T03:43:13.140Z,0
2022-08-10T03:48:13.081Z,256
2022-08-10T03:53:24.895Z,258
2022-08-10T03:58:13.120Z,260
2022-08-10T04:03:13.052Z,264
2022-08-10T04:08:13.034Z,267
2022-08-10T04:13:13.035Z,270
2022-08-10T04:18:13.107Z,273
2022-08-10T04:23:13.093Z,280
2022-08-10T04:28:13.141Z,289
2022-08-10T04:38:13.119Z,304
2022-08-10T04:48:41.773Z,328
2022-08-10T04:53:13.167Z,337
2022-08-10T04:58:13.072Z,343
2022-08-10T05:03:13.099Z,350
2022-08-10T05:08:13.151Z,356
2022-08-10T05:13:13.115Z,361
2022-08-10T05:18:13.103Z,367
2022-08-10T05:28:13.118Z,380
2022-08-10T05:33:13.177Z,381
2022-08-10T05:43:13.311Z,390
2022-08-10T05:54:00.448Z,400
2022-08-10T05:58:13.069Z,406
2022-08-10T06:03:13.086Z,408
2022-08-10T06:08:13.092Z,409
2022-08-10T06:13:19.432Z,412
2022-08-10T06:18:13.086Z,414
2022-08-10T06:23:13.124Z,420
2022-08-10T06:28:13.110Z,427
2022-08-10T06:33:13.253Z,430
2022-08-10T06:38:13.114Z,433
2022-08-10T06:43:13.111Z,440
2022-08-10T06:48:13.099Z,445
2022-08-10T06:53:13.129Z,450
2022-08-10T06:58:13.167Z,460
2022-08-10T07:03:13.116Z,468
2022-08-10T07:08:13.110Z,477
2022-08-10T07:13:13.123Z,487
2022-08-10T07:18:13.087Z,498
2022-08-10T07:23:54.892Z,510
2022-08-10T07:28:13.125Z,527
2022-08-10T07:33:13.180Z,546
2022-08-10T07:38:13.133Z,574
2022-08-10T07:43:13.265Z,605
2022-08-10T07:48:13.193Z,615
2022-08-10T07:53:13.140Z,665
2022-08-10T07:58:13.138Z,717
2022-08-10T08:03:13.312Z,782
2022-08-10T08:08:13.155Z,835
2022-08-10T08:13:13.126Z,879
2022-08-10T08:18:13.159Z,908
2022-08-10T08:24:03.093Z,934
2022-08-10T08:28:13.154Z,963
2022-08-10T08:33:19.981Z,988
2022-08-10T08:38:28.999Z,1033
2022-08-10T08:43:13.150Z,1081
2022-08-10T08:48:13.217Z,1175
2022-08-10T08:53:21.359Z,1373
2022-08-10T08:58:13.159Z,1660
2022-08-10T09:03:13.108Z,4257
2022-08-10T09:08:14.613Z,14096
2022-08-10T09:13:13.221Z,14330
2022-08-10T09:18:13.170Z,12854
2022-08-10T09:23:13.148Z,11839
2022-08-10T09:28:13.126Z,13880
2022-08-10T09:36:27.290Z,14696
2022-08-10T09:38:13.160Z,14748
2022-08-10T09:43:25.724Z,14836
2022-08-10T09:48:13.239Z,13416
2022-08-10T09:53:13.196Z,1743
2022-08-10T09:58:13.175Z,14117
2022-08-10T10:03:13.212Z,11016
2022-08-10T10:08:13.191Z,1807
2022-08-10T10:13:13.177Z,1898
2022-08-10T10:18:13.160Z,1095
2022-08-10T10:28:13.230Z,1491
2022-08-10T10:33:14.503Z,13862
2022-08-10T10:38:15.076Z,2504
2022-08-10T10:43:13.228Z,1112
2022-08-10T10:53:13.221Z,1171
2022-08-10T10:58:15.375Z,1008
2022-08-10T11:03:13.239Z,1447
2022-08-10T11:08:14.572Z,11736
2022-08-10T11:14:24.001Z,1127
2022-08-10T11:18:14.041Z,10441
2022-08-10T11:23:13.210Z,2101
2022-08-10T11:28:14.490Z,1455
2022-08-10T11:33:13.210Z,1374
2022-08-10T11:38:28.212Z,1151
2022-08-10T11:43:13.203Z,874
2022-08-10T11:48:13.245Z,1058
2022-08-10T11:53:13.225Z,1056
2022-08-10T11:58:13.246Z,1033
2022-08-10T12:03:13.569Z,1270
2022-08-10T12:08:55.228Z,1010
2022-08-10T12:13:13.214Z,1077
2022-08-10T12:18:13.235Z,1065
2022-08-10T12:23:13.267Z,1058
2022-08-10T12:28:13.207Z,1090
2022-08-10T12:33:13.532Z,1078
2022-08-10T12:38:13.826Z,855
2022-08-10T12:44:04.051Z,892
2022-08-10T12:48:13.242Z,1003
2022-08-10T12:53:13.231Z,1001
2022-08-10T12:58:58.485Z,977
2022-08-10T13:03:13.292Z,868
2022-08-10T13:08:26.160Z,878
2022-08-10T13:13:13.277Z,799
2022-08-10T13:18:18.018Z,806
2022-08-10T13:23:13.321Z,940
2022-08-10T13:28:36.791Z,1224
2022-08-10T13:33:13.387Z,804
2022-08-10T13:38:13.291Z,594
2022-08-10T13:43:13.258Z,1016
2022-08-10T13:48:13.309Z,968
2022-08-10T13:53:15.084Z,898
2022-08-10T13:58:13.579Z,558
2022-08-10T14:03:13.319Z,1139
2022-08-10T14:08:13.260Z,1010
2022-08-10T14:13:13.288Z,719
2022-08-10T14:18:13.319Z,914
2022-08-10T14:23:13.405Z,658
2022-08-10T14:28:13.334Z,861
2022-08-10T14:33:13.522Z,806
2022-08-10T14:38:13.301Z,862
2022-08-10T14:48:13.324Z,897
2022-08-10T15:43:20.045Z,876
2022-08-10T15:48:16.205Z,963
2022-08-10T15:53:15.565Z,910
2022-08-10T15:58:13.598Z,840
2022-08-10T16:03:13.367Z,823
2022-08-10T16:08:13.281Z,523
2022-08-10T16:13:49.960Z,391
2022-08-10T16:18:13.469Z,367
2022-08-10T16:23:14.934Z,358
2022-08-10T16:28:20.234Z,626
2022-08-10T16:33:13.328Z,601
2022-08-10T16:38:13.479Z,590
2022-08-10T16:43:13.367Z,572
2022-08-10T16:48:13.373Z,562
2022-08-10T16:53:13.313Z,534
2022-08-10T16:58:13.323Z,497
2022-08-10T17:03:22.372Z,494
2022-08-10T17:08:13.324Z,461
2022-08-10T17:18:13.406Z,405
2022-08-10T17:23:13.390Z,385
2022-08-10T17:28:13.348Z,358
2022-08-10T17:33:13.329Z,337
2022-08-10T17:38:13.343Z,330
2022-08-10T17:43:13.415Z,317
2022-08-10T17:48:13.358Z,308
2022-08-10T17:53:13.384Z,304
2022-08-10T17:58:13.353Z,301
2022-08-10T18:03:15.742Z,300
2022-08-10T18:08:13.391Z,297
2022-08-10T18:13:13.370Z,288
2022-08-10T18:18:13.383Z,281
2022-08-10T18:23:13.350Z,279
2022-08-10T18:28:13.570Z,274
2022-08-10T18:33:13.412Z,270
2022-08-10T18:38:13.478Z,266
2022-08-10T18:44:03.036Z,262
2022-08-10T18:48:13.389Z,260
2022-08-10T18:53:13.400Z,257
2022-08-10T18:58:13.394Z,0
2022-08-10T19:03:13.430Z,0
2022-08-10T19:08:13.483Z,0
2022-08-10T19:13:13.409Z,0
2022-08-10T19:18:13.519Z,0
2022-08-10T19:23:13.383Z,0
2022-08-10T19:28:13.446Z,0
2022-08-10T19:33:13.469Z,0
2022-08-10T19:38:16.413Z,0
2022-08-10T19:43:13.421Z,0
2022-08-10T19:48:13.415Z,0
2022-08-10T19:53:13.372Z,0
2022-08-10T19:58:13.409Z,0
2022-08-10T20:03:13.440Z,0
2022-08-10T20:08:16.570Z,0
2022-08-10T20:13:13.492Z,0
2022-08-10T20:18:14.217Z,0
2022-08-10T20:23:13.438Z,0
2022-08-10T20:28:13.407Z,0
2022-08-10T20:33:13.423Z,0
2022-08-10T20:38:15.747Z,0
2022-08-10T20:43:13.470Z,0
2022-08-10T20:48:13.443Z,0
2022-08-10T20:53:13.415Z,0
2022-08-10T20:58:13.433Z,0
2022-08-10T21:03:16.021Z,0
2022-08-10T21:08:13.438Z,0
2022-08-10T21:13:13.424Z,0
2022-08-10T21:18:13.515Z,0
2022-08-10T21:23:13.403Z,0
2022-08-10T21:28:13.547Z,0
2022-08-10T21:33:13.530Z,0
2022-08-10T21:38:13.458Z,0
2022-08-10T21:43:13.545Z,0
2022-08-10T21:48:16.910Z,0
2022-08-10T21:53:13.463Z,0
2022-08-10T21:58:14.499Z,0
2022-08-10T22:03:15.255Z,0
2022-08-10T22:08:14.868Z,0
2022-08-10T22:13:13.456Z,0
2022-08-10T22:18:13.647Z,0
2022-08-10T22:23:18.985Z,0
2022-08-10T22:28:17.857Z,0
2022-08-10T22:33:13.431Z,0
2022-08-10T22:38:13.449Z,0
2022-08-10T22:43:13.668Z,0
2022-08-10T22:48:13.512Z,0
2022-08-10T22:53:13.474Z,0
2022-08-10T22:58:13.496Z,0
2022-08-10T23:03:13.574Z,0
2022-08-10T23:08:30.141Z,0
2022-08-10T23:13:13.479Z,0
2022-08-10T23:18:13.729Z,0
2022-08-10T23:23:23.775Z,0
2022-08-10T23:28:13.458Z,0
2022-08-10T23:33:13.439Z,0
2022-08-10T23:38:13.477Z,0
2022-08-10T23:43:13.513Z,0
2022-08-10T23:48:13.525Z,0
2022-08-10T23:53:15.506Z,0
2022-08-10T23:58:32.805Z,0
